createdAt,value
2022-10-24T00:04:28.836Z,100.00
2022-10-24T00:09:31.737Z,100.00
2022-10-24T00:14:35.405Z,100.00
2022-10-24T00:19:39.615Z,100.00
2022-10-24T00:24:42.333Z,100.00
2022-10-24T00:29:45.134Z,100.00
2022-10-24T00:34:49.321Z,100.00
2022-10-24T00:39:52.563Z,100.00
2022-10-24T00:44:55.371Z,100.00
2022-10-24T00:50:04.816Z,100.00
2022-10-24T00:55:09.406Z,100.00
2022-10-24T01:00:15.827Z,100.00
2022-10-24T01:05:22.890Z,100.00
2022-10-24T01:10:37.531Z,100.00
2022-10-24T01:15:48.821Z,100.00
2022-10-24T01:21:24.729Z,100.00
2022-10-24T01:27:03.418Z,100.00
2022-10-24T01:32:13.095Z,100.00
2022-10-24T01:37:21.678Z,100.00
2022-10-24T01:42:27.359Z,100.00
2022-10-24T01:47:38.529Z,100.00
2022-10-24T01:52:44.112Z,100.00
2022-10-24T01:57:46.971Z,100.00
2022-10-24T02:02:56.673Z,100.00
2022-10-24T02:08:04.919Z,100.00
2022-10-24T02:13:13.146Z,100.00
2022-10-24T02:18:17.434Z,100.00
2022-10-24T02:23:26.275Z,100.00
2022-10-24T02:28:34.838Z,100.00
2022-10-24T02:33:41.989Z,100.00
2022-10-24T02:38:46.276Z,100.00
2022-10-24T02:43:52.294Z,100.00
2022-10-24T02:49:00.253Z,100.00
2022-10-24T02:54:04.203Z,100.00
2022-10-24T02:59:06.919Z,100.00
2022-10-24T03:04:11.061Z,100.00
2022-10-24T03:09:13.793Z,100.00
2022-10-24T03:14:16.747Z,100.00
2022-10-24T03:19:21.127Z,100.00
2022-10-24T03:24:36.986Z,100.00
2022-10-24T03:29:46.922Z,100.00
2022-10-24T03:34:51.113Z,100.00
2022-10-24T03:39:53.838Z,100.00
2022-10-24T03:44:56.680Z,100.00
2022-10-24T03:50:00.823Z,100.00
2022-10-24T03:55:03.712Z,100.00
2022-10-24T04:00:08.230Z,100.00
2022-10-24T04:05:12.885Z,100.00
2022-10-24T04:10:15.664Z,100.00
2022-10-24T04:15:18.490Z,100.00
2022-10-24T04:20:23.244Z,100.00
2022-10-24T04:25:26.007Z,100.00
2022-10-24T04:30:29.874Z,100.00
2022-10-24T04:35:34.466Z,100.00
2022-10-24T04:40:37.176Z,100.00
2022-10-24T04:45:40.491Z,100.00
2022-10-24T04:50:46.115Z,100.00
2022-10-24T04:55:48.904Z,100.00
2022-10-24T05:00:51.780Z,100.00
2022-10-24T05:05:55.908Z,100.00
2022-10-24T05:10:59.149Z,100.00
2022-10-24T05:16:02.013Z,100.00
2022-10-24T05:21:06.770Z,100.00
2022-10-24T05:26:10.229Z,100.00
2022-10-24T05:31:12.938Z,100.00
2022-10-24T05:36:17.507Z,100.00
2022-10-24T05:41:20.359Z,100.00
2022-10-24T05:46:24.076Z,100.00
2022-10-24T05:51:28.337Z,100.00
2022-10-24T05:56:31.131Z,100.00
2022-10-24T06:01:34.486Z,100.00
2022-10-24T06:06:40.907Z,100.00
2022-10-24T06:11:43.703Z,100.00
2022-10-24T06:16:46.669Z,100.00
2022-10-24T06:21:50.847Z,100.00
2022-10-24T06:26:53.603Z,100.00
2022-10-24T06:31:56.464Z,100.00
2022-10-24T06:37:02.571Z,100.00
2022-10-24T06:42:05.521Z,100.00
2022-10-24T06:47:08.314Z,100.00
2022-10-24T06:52:12.461Z,100.00
2022-10-24T06:57:15.628Z,100.00
2022-10-24T07:02:18.668Z,100.00
2022-10-24T07:07:23.603Z,100.00
2022-10-24T07:12:26.769Z,100.00
2022-10-24T07:17:29.961Z,100.00
2022-10-24T07:22:34.165Z,100.00
2022-10-24T07:27:36.890Z,100.00
2022-10-24T07:32:39.669Z,100.00
2022-10-24T07:37:45.018Z,100.00
2022-10-24T07:42:48.441Z,100.00
2022-10-24T07:47:51.168Z,100.00
2022-10-24T07:52:55.644Z,100.00
2022-10-24T07:57:58.496Z,100.00
2022-10-24T08:03:01.337Z,100.00
2022-10-24T08:08:35.119Z,100.00
2022-10-24T08:13:32.042Z,100.00
2022-10-24T08:18:41.667Z,100.00
2022-10-24T08:23:49.486Z,100.00
2022-10-24T08:28:53.274Z,100.00
2022-10-24T08:33:56.983Z,100.00
2022-10-24T08:39:02.756Z,100.00
2022-10-24T08:44:15.291Z,100.00
2022-10-24T08:49:29.248Z,100.00
2022-10-24T08:54:37.706Z,100.00
2022-10-24T08:59:40.465Z,100.00
2022-10-24T09:04:50.321Z,100.00
2022-10-24T09:10:04.388Z,100.00
2022-10-24T09:15:16.824Z,100.00
2022-10-24T09:20:25.848Z,100.00
2022-10-24T09:25:35.621Z,100.00
2022-10-24T09:30:39.079Z,100.00
2022-10-24T09:35:44.056Z,100.00
2022-10-24T09:40:51.661Z,100.00
2022-10-24T09:46:03.373Z,100.00
2022-10-24T09:51:08.165Z,100.00
2022-10-24T09:56:14.213Z,100.00
2022-10-24T10:01:22.678Z,100.00
2022-10-24T10:06:25.718Z,100.00
2022-10-24T10:11:35.386Z,100.00
2022-10-24T10:16:43.593Z,100.00
2022-10-24T10:21:55.360Z,94.22
2022-10-24T10:26:59.483Z,91.27
2022-10-24T10:32:11.719Z,89.90
2022-10-24T10:37:26.569Z,84.12
2022-10-24T10:42:39.663Z,81.71
2022-10-24T10:47:57.168Z,79.16
2022-10-24T10:53:09.805Z,76.21
2022-10-24T10:58:26.722Z,74.22
2022-10-24T11:03:39.183Z,71.82
2022-10-24T11:09:15.823Z,72.13
2022-10-24T11:14:30.707Z,68.50
2022-10-24T11:19:41.359Z,69.42
2022-10-24T11:24:50.158Z,70.36
2022-10-24T11:29:58.061Z,71.28
2022-10-24T11:35:06.155Z,72.94
2022-10-24T11:40:13.700Z,64.57
2022-10-24T11:45:21.226Z,67.95
2022-10-24T11:50:29.887Z,66.45
2022-10-24T11:55:39.164Z,63.58
2022-10-24T12:01:04.730Z,66.66
2022-10-24T12:06:35.876Z,63.64
2022-10-24T12:12:06.257Z,65.20
2022-10-24T12:17:38.505Z,63.89
2022-10-24T12:22:45.254Z,60.60
2022-10-24T12:27:55.232Z,60.14
2022-10-24T12:33:10.353Z,57.47
2022-10-24T12:38:39.786Z,59.40
2022-10-24T12:43:45.456Z,61.89
2022-10-24T12:49:23.180Z,60.10
2022-10-24T12:54:43.082Z,62.73
2022-10-24T12:59:52.816Z,63.50
2022-10-24T13:05:10.728Z,63.90
2022-10-24T13:10:28.955Z,65.29
2022-10-24T13:15:47.797Z,67.19
2022-10-24T13:21:14.132Z,68.77
2022-10-24T13:26:38.401Z,70.17
2022-10-24T13:31:48.722Z,72.03
2022-10-24T13:36:58.785Z,72.74
2022-10-24T13:42:05.987Z,70.65
2022-10-24T13:47:17.936Z,70.54
2022-10-24T13:52:26.228Z,69.60
2022-10-24T13:57:36.260Z,67.58
2022-10-24T14:02:43.155Z,69.58
2022-10-24T14:07:46.739Z,68.60
2022-10-24T14:12:51.957Z,65.28
2022-10-24T14:18:00.013Z,64.92
2022-10-24T14:23:03.226Z,65.54
2022-10-24T14:28:15.801Z,66.33
2022-10-24T14:33:25.716Z,67.07
2022-10-24T14:38:30.305Z,68.59
2022-10-24T14:43:33.819Z,70.06
2022-10-24T14:48:39.462Z,71.49
2022-10-24T14:53:46.026Z,72.15
2022-10-24T14:58:52.019Z,74.00
2022-10-24T15:03:57.675Z,74.57
2022-10-24T15:09:06.599Z,75.13
2022-10-24T15:14:34.308Z,74.73
2022-10-24T15:19:39.541Z,76.20
2022-10-24T15:24:44.412Z,76.16
2022-10-24T15:29:48.089Z,75.54
2022-10-24T15:34:55.097Z,79.27
2022-10-24T15:39:57.911Z,80.23
2022-10-24T15:45:02.299Z,81.20
2022-10-24T15:50:07.379Z,81.19
2022-10-24T15:55:17.888Z,82.67
2022-10-24T16:00:23.596Z,84.96
2022-10-24T16:05:31.745Z,85.05
2022-10-24T16:10:34.671Z,84.28
2022-10-24T16:15:39.112Z,87.27
2022-10-24T16:20:43.458Z,86.99
2022-10-24T16:25:46.456Z,86.76
2022-10-24T16:30:49.343Z,85.42
2022-10-24T16:35:53.715Z,84.67
2022-10-24T16:40:56.576Z,86.23
2022-10-24T16:46:00.850Z,86.00
2022-10-24T16:51:10.438Z,87.09
2022-10-24T16:56:15.502Z,87.96
2022-10-24T17:01:21.456Z,88.28
2022-10-24T17:06:25.626Z,88.72
2022-10-24T17:16:51.751Z,91.78
2022-10-24T17:21:57.130Z,91.21
2022-10-24T17:27:00.157Z,91.67
2022-10-24T17:32:03.329Z,92.58
2022-10-24T17:37:11.898Z,93.18
2022-10-24T17:42:15.184Z,93.25
2022-10-24T17:47:18.237Z,94.71
2022-10-24T17:52:25.305Z,96.58
2022-10-24T18:02:55.105Z,99.23
2022-10-24T18:08:00.292Z,100.00
2022-10-24T18:13:03.211Z,100.00
2022-10-24T18:18:06.759Z,100.00
2022-10-24T18:23:10.902Z,100.00
2022-10-24T18:28:13.804Z,100.00
2022-10-24T18:33:17.639Z,100.00
2022-10-24T18:38:21.820Z,100.00
2022-10-24T18:43:25.096Z,100.00
2022-10-24T18:48:29.011Z,100.00
2022-10-24T18:53:36.915Z,100.00
2022-10-24T18:58:41.497Z,100.00
2022-10-24T19:03:47.155Z,100.00
2022-10-24T19:08:52.879Z,100.00
2022-10-24T19:13:55.933Z,100.00
2022-10-24T19:19:00.981Z,100.00
2022-10-24T19:24:05.379Z,100.00
2022-10-24T19:29:08.269Z,100.00
2022-10-24T19:34:11.728Z,100.00
2022-10-24T19:39:16.304Z,100.00
2022-10-24T19:44:21.287Z,100.00
2022-10-24T19:49:24.119Z,100.00
2022-10-24T19:54:28.318Z,100.00
2022-10-24T19:59:33.920Z,100.00
2022-10-24T20:04:40.086Z,100.00
2022-10-24T20:09:45.355Z,100.00
2022-10-24T20:14:48.622Z,100.00
2022-10-24T20:19:51.429Z,100.00
2022-10-24T20:24:55.494Z,100.00
2022-10-24T20:29:58.255Z,100.00
2022-10-24T20:35:01.339Z,100.00
2022-10-24T20:40:06.330Z,100.00
2022-10-24T20:45:10.027Z,100.00
2022-10-24T20:50:13.188Z,100.00
2022-10-24T20:55:31.661Z,100.00
2022-10-24T21:05:43.840Z,100.00
2022-10-24T21:10:48.091Z,100.00
2022-10-24T21:15:55.838Z,100.00
2022-10-24T21:20:58.613Z,100.00
2022-10-24T21:26:05.233Z,100.00
2022-10-24T21:31:09.625Z,100.00
2022-10-24T21:36:14.882Z,100.00
2022-10-24T21:41:20.851Z,100.00
2022-10-24T21:46:26.496Z,100.00
2022-10-24T21:51:32.638Z,100.00
2022-10-24T21:56:37.744Z,100.00
2022-10-24T22:01:41.516Z,100.00
2022-10-24T22:06:45.538Z,100.00
2022-10-24T22:11:49.708Z,100.00
2022-10-24T22:16:52.507Z,100.00
2022-10-24T22:21:55.238Z,100.00
2022-10-24T22:26:59.412Z,100.00
2022-10-24T22:32:02.701Z,100.00
2022-10-24T22:37:13.762Z,100.00
2022-10-24T22:42:20.222Z,100.00
2022-10-24T22:47:55.878Z,100.00
2022-10-24T22:52:59.107Z,100.00
2022-10-24T22:58:03.953Z,100.00
2022-10-24T23:03:21.391Z,100.00
2022-10-24T23:08:32.623Z,100.00
2022-10-24T23:13:37.519Z,100.00
2022-10-24T23:18:40.718Z,100.00
2022-10-24T23:23:43.923Z,100.00
2022-10-24T23:28:52.809Z,100.00
2022-10-24T23:33:56.002Z,100.00
2022-10-24T23:38:59.317Z,100.00
2022-10-24T23:44:03.919Z,100.00
2022-10-24T23:49:22.775Z,100.00
2022-10-24T23:54:27.681Z,100.00
2022-10-24T23:59:31.849Z,100.00
